Time;durP1;ratioP1;P1;durP2;ratioP2;P2;SDS_P1;SDS_P2;PMS_P1;PMS_P2;Temp;Humidity;BMP_temperature;BMP_pressure;BME280_temperature;BME280_humidity;BME280_pressure;Samples;Min_cycle;Max_cycle;Signal;HPM_P1;HPM_P2
2023/01/01 00:01:11;;;;;;;34.22;23.20;;;13.60;99.90;;;;;;5058907;28;20036;-89
2023/01/01 00:03:38;;;;;;;47.30;25.70;;;13.50;99.90;;;;;;5058744;28;20047;-88
2023/01/01 00:06:11;;;;;;;46.03;29.65;;;13.50;99.90;;;;;;5075135;28;20072;-88
2023/01/01 00:08:38;;;;;;;39.75;25.33;;;13.50;99.90;;;;;;5074791;28;20079;-89
2023/01/01 00:11:06;;;;;;;34.42;24.38;;;13.60;99.90;;;;;;5058252;28;20048;-88
2023/01/01 00:13:33;;;;;;;44.53;28.58;;;13.60;99.90;;;;;;5059024;28;20040;-88
2023/01/01 00:16:08;;;;;;;30.02;18.88;;;13.50;99.90;;;;;;5058222;28;20036;-89
2023/01/01 00:18:34;;;;;;;34.13;21.40;;;13.50;99.90;;;;;;5074577;28;20047;-89
2023/01/01 00:21:04;;;;;;;28.98;19.17;;;13.50;99.90;;;;;;5061195;28;20048;-88
2023/01/01 00:23:30;;;;;;;32.00;19.02;;;13.50;99.90;;;;;;5056425;28;20069;-89
2023/01/01 00:25:56;;;;;;;33.80;21.25;;;13.50;99.90;;;;;;5057518;28;20051;-89
2023/01/01 00:28:22;;;;;;;30.67;19.85;;;13.40;99.90;;;;;;5057780;28;20040;-89
2023/01/01 00:30:48;;;;;;;41.15;25.23;;;13.40;99.90;;;;;;5057592;28;20050;-89
2023/01/01 00:33:13;;;;;;;32.13;20.38;;;13.40;99.90;;;;;;5058189;28;20391;-89
2023/01/01 00:35:39;;;;;;;34.63;18.60;;;13.40;99.90;;;;;;5038384;28;20035;-86
2023/01/01 00:38:06;;;;;;;33.70;19.27;;;13.30;99.90;;;;;;5043732;28;20626;-88
2023/01/01 00:40:32;;;;;;;31.88;20.65;;;13.40;99.90;;;;;;5056059;28;20036;-90
2023/01/01 00:42:57;;;;;;;34.10;19.80;;;13.40;99.90;;;;;;5056538;28;20506;-88
2023/01/01 00:45:23;;;;;;;31.88;18.60;;;13.50;99.90;;;;;;5073528;28;20109;-89
2023/01/01 00:47:50;;;;;;;34.50;20.08;;;13.40;99.90;;;;;;5057604;28;20036;-89
2023/01/01 00:50:16;;;;;;;34.90;20.45;;;13.50;99.90;;;;;;5054501;28;20129;-89
2023/01/01 00:52:42;;;;;;;34.53;20.45;;;13.50;99.90;;;;;;5057399;28;20395;-89
2023/01/01 00:55:09;;;;;;;32.28;19.85;;;13.60;99.90;;;;;;5039968;28;20028;-89
2023/01/01 00:57:34;;;;;;;39.20;21.85;;;13.60;99.90;;;;;;5056948;28;20617;-90
2023/01/01 01:00:00;;;;;;;34.88;20.40;;;13.50;99.90;;;;;;5037235;28;20087;-89
2023/01/01 01:02:26;;;;;;;35.28;22.83;;;13.60;99.90;;;;;;5038886;28;20043;-89
2023/01/01 01:04:51;;;;;;;34.53;20.75;;;13.60;99.90;;;;;;5039750;28;20043;-90
2023/01/01 01:07:17;;;;;;;31.40;20.60;;;13.60;99.90;;;;;;5039418;28;20052;-89
2023/01/01 01:09:43;;;;;;;31.70;20.70;;;13.60;99.90;;;;;;5038448;28;20135;-84
2023/01/01 01:12:08;;;;;;;28.58;19.33;;;13.60;99.90;;;;;;5018375;28;20093;-85
2023/01/01 01:14:34;;;;;;;33.50;19.23;;;13.60;99.90;;;;;;5036163;28;20419;-84
2023/01/01 01:17:00;;;;;;;31.85;19.02;;;13.70;99.90;;;;;;5035021;28;20043;-85
2023/01/01 01:19:26;;;;;;;28.67;18.80;;;13.70;99.90;;;;;;5052828;28;20048;-84
2023/01/01 01:21:51;;;;;;;30.15;18.33;;;13.70;99.90;;;;;;5037079;28;20040;-84
2023/01/01 01:24:17;;;;;;;27.85;17.60;;;13.70;99.90;;;;;;5021123;28;20040;-85
2023/01/01 01:26:43;;;;;;;28.80;17.88;;;13.70;99.90;;;;;;5053997;28;20079;-84
2023/01/01 01:29:09;;;;;;;33.58;18.10;;;13.70;99.90;;;;;;5020522;28;20083;-84
2023/01/01 01:31:35;;;;;;;31.42;16.85;;;13.70;99.90;;;;;;5035864;28;20436;-85
2023/01/01 01:34:01;;;;;;;28.45;17.92;;;13.70;99.90;;;;;;5036008;28;20042;-84
2023/01/01 01:36:27;;;;;;;25.85;15.77;;;13.70;99.90;;;;;;5052243;28;20055;-84
2023/01/01 01:38:54;;;;;;;27.88;15.88;;;13.70;99.90;;;;;;5038309;28;20158;-85
2023/01/01 01:41:22;;;;;;;27.75;14.85;;;13.70;99.90;;;;;;5038365;28;20039;-84
2023/01/01 01:43:55;;;;;;;28.08;14.88;;;13.70;99.90;;;;;;5071664;28;20511;-84
2023/01/01 01:46:42;;;;;;;25.52;14.20;;;13.70;99.90;;;;;;5069255;28;20502;-84
2023/01/01 01:49:17;;;;;;;29.02;15.40;;;13.70;99.90;;;;;;5054662;28;20044;-84
2023/01/01 01:51:44;;;;;;;23.80;13.88;;;13.60;99.90;;;;;;5071491;28;20048;-84
2023/01/01 01:54:15;;;;;;;24.85;14.32;;;13.60;99.90;;;;;;5054929;28;20484;-84
2023/01/01 01:56:49;;;;;;;22.30;13.18;;;13.50;99.90;;;;;;5071743;28;20476;-84
2023/01/01 01:59:17;;;;;;;28.02;14.15;;;13.40;99.90;;;;;;5054694;28;20212;-84
2023/01/01 02:01:43;;;;;;;27.08;13.40;;;13.40;99.90;;;;;;5054401;28;20048;-84
2023/01/01 02:04:10;;;;;;;29.50;13.13;;;13.40;99.90;;;;;;5054959;28;20043;-84
2023/01/01 02:06:38;;;;;;;25.63;13.85;;;13.40;99.90;;;;;;5053953;28;20040;-84
2023/01/01 02:09:05;;;;;;;21.40;12.25;;;13.30;99.90;;;;;;5055181;28;20362;-85
2023/01/01 02:11:31;;;;;;;25.50;12.30;;;13.30;99.90;;;;;;5038883;28;20139;-84
2023/01/01 02:13:59;;;;;;;18.25;10.52;;;13.30;99.90;;;;;;5037737;28;20566;-84
2023/01/01 02:16:36;;;;;;;21.23;10.85;;;13.30;99.90;;;;;;5054821;28;20828;-84
2023/01/01 02:19:02;;;;;;;22.02;10.10;;;13.30;99.90;;;;;;5068844;28;20105;-84
2023/01/01 02:21:43;;;;;;;22.40;10.85;;;13.30;99.90;;;;;;5054457;28;20036;-84
2023/01/01 02:24:29;;;;;;;21.23;9.73;;;13.30;99.90;;;;;;5055032;28;20036;-84
2023/01/01 02:27:33;;;;;;;21.33;9.93;;;13.30;99.90;;;;;;5044980;28;20057;-84
2023/01/01 02:30:06;;;;;;;18.42;8.82;;;13.30;99.90;;;;;;5005990;28;20192;-83
2023/01/01 02:32:40;;;;;;;20.15;9.98;;;13.30;99.90;;;;;;5007384;28;20129;-84
2023/01/01 02:35:35;;;;;;;21.20;8.95;;;13.30;99.90;;;;;;5037143;28;20401;-83
2023/01/01 02:38:14;;;;;;;18.52;8.45;;;13.30;99.90;;;;;;5070917;28;20532;-84
2023/01/01 02:40:46;;;;;;;18.88;7.70;;;13.30;99.90;;;;;;5054679;28;20059;-84
2023/01/01 02:43:12;;;;;;;16.17;7.22;;;13.40;99.90;;;;;;5054408;28;20476;-84
2023/01/01 02:45:38;;;;;;;17.58;6.57;;;13.40;99.90;;;;;;5054254;28;20123;-84
2023/01/01 02:48:06;;;;;;;13.23;5.38;;;13.40;99.90;;;;;;5038165;28;20078;-84
2023/01/01 02:50:34;;;;;;;17.02;5.35;;;13.50;99.90;;;;;;5054358;28;20036;-84
2023/01/01 02:53:38;;;;;;;12.43;5.15;;;13.50;99.90;;;;;;5071431;28;20044;-84
2023/01/01 02:56:36;;;;;;;14.48;5.15;;;13.60;99.90;;;;;;5057891;28;20044;-85
2023/01/01 03:02:19;;;;;;;14.25;4.60;;;13.80;99.90;;;;;;5071167;28;20044;-83
2023/01/01 03:05:03;;;;;;;13.90;4.05;;;13.80;99.90;;;;;;5025983;28;20181;-84
2023/01/01 03:07:50;;;;;;;10.18;3.40;;;13.80;99.90;;;;;;5057432;28;20036;-83
2023/01/01 03:10:38;;;;;;;9.93;3.58;;;13.90;99.90;;;;;;5058366;28;20131;-83
2023/01/01 03:13:28;;;;;;;10.40;3.42;;;13.60;99.90;;;;;;5047557;28;20044;-84
2023/01/01 03:16:09;;;;;;;11.25;3.45;;;14.00;99.90;;;;;;5059517;28;20044;-84
2023/01/01 03:18:50;;;;;;;9.60;3.08;;;14.00;99.90;;;;;;5058486;28;20684;-83
2023/01/01 03:21:21;;;;;;;11.98;3.30;;;14.00;99.90;;;;;;5058052;28;20039;-83
2023/01/01 03:23:53;;;;;;;11.90;3.00;;;14.00;99.90;;;;;;5057739;28;20032;-83
2023/01/01 03:26:24;;;;;;;14.75;4.18;;;14.00;99.90;;;;;;5074112;28;20442;-83
2023/01/01 03:28:55;;;;;;;9.68;3.10;;;14.00;99.90;;;;;;5056490;28;20044;-83
2023/01/01 03:31:25;;;;;;;7.82;2.85;;;14.00;99.90;;;;;;5057789;28;20067;-83
2023/01/01 03:34:05;;;;;;;7.47;3.38;;;14.10;99.90;;;;;;5054599;28;20036;-83
2023/01/01 03:36:36;;;;;;;13.80;3.50;;;14.10;99.90;;;;;;5062984;28;20063;-83
2023/01/01 03:39:09;;;;;;;12.40;3.10;;;14.10;99.90;;;;;;5073350;28;20097;-83
2023/01/01 03:41:39;;;;;;;11.65;3.10;;;14.00;99.90;;;;;;5073151;28;20423;-83
2023/01/01 03:44:15;;;;;;;6.93;2.67;;;14.00;99.90;;;;;;5071391;28;20119;-83
2023/01/01 03:46:41;;;;;;;12.30;3.95;;;14.00;99.90;;;;;;5057594;28;20047;-84
2023/01/01 03:49:10;;;;;;;12.30;3.10;;;14.10;99.90;;;;;;5040384;28;20047;-84
2023/01/01 03:51:57;;;;;;;12.55;3.00;;;14.10;99.90;;;;;;5074229;28;20036;-83
2023/01/01 03:54:38;;;;;;;9.73;3.17;;;14.10;99.90;;;;;;5046912;28;20051;-83
2023/01/01 03:57:31;;;;;;;7.95;2.78;;;14.10;99.90;;;;;;5057603;28;20039;-84
2023/01/01 04:00:16;;;;;;;8.90;3.22;;;14.10;99.90;;;;;;5073436;28;20036;-84
2023/01/01 04:02:59;;;;;;;7.03;2.70;;;14.10;99.90;;;;;;5056234;28;20051;-84
2023/01/01 04:05:26;;;;;;;10.10;3.00;;;14.10;99.90;;;;;;5074319;28;20040;-84
2023/01/01 04:07:53;;;;;;;12.00;2.65;;;14.10;99.90;;;;;;5057439;28;20093;-84
2023/01/01 04:10:19;;;;;;;9.07;2.80;;;14.00;99.90;;;;;;5057006;28;20048;-84
2023/01/01 04:12:54;;;;;;;13.23;2.80;;;14.00;99.90;;;;;;5073376;28;20361;-84
2023/01/01 04:15:25;;;;;;;9.03;2.43;;;14.00;99.90;;;;;;5054682;28;20388;-84
2023/01/01 04:17:51;;;;;;;9.32;2.65;;;14.00;99.90;;;;;;5072813;28;20058;-84
2023/01/01 04:20:17;;;;;;;8.52;2.60;;;14.00;99.90;;;;;;5056772;28;20097;-84
2023/01/01 04:22:43;;;;;;;9.80;2.70;;;14.00;99.90;;;;;;5040150;28;20054;-84
2023/01/01 04:25:10;;;;;;;9.15;2.40;;;13.90;99.90;;;;;;5057051;28;20040;-84
2023/01/01 04:27:37;;;;;;;9.18;2.38;;;13.90;99.90;;;;;;5056472;28;20496;-84
2023/01/01 04:30:09;;;;;;;10.48;2.70;;;13.90;99.90;;;;;;5055569;28;20131;-84
2023/01/01 04:32:34;;;;;;;6.32;2.25;;;13.90;99.90;;;;;;5056605;28;20078;-84
2023/01/01 04:35:00;;;;;;;9.05;2.70;;;13.90;99.90;;;;;;5039769;28;20067;-84
2023/01/01 04:37:26;;;;;;;11.18;2.47;;;13.90;99.90;;;;;;5039524;28;20052;-84
2023/01/01 04:39:52;;;;;;;11.57;2.40;;;13.90;99.90;;;;;;5054899;28;20127;-84
2023/01/01 04:42:18;;;;;;;11.93;2.67;;;13.90;99.90;;;;;;5039470;28;20048;-84
2023/01/01 04:44:43;;;;;;;9.95;2.20;;;14.00;99.90;;;;;;5037859;28;20102;-84
2023/01/01 04:47:09;;;;;;;8.30;2.38;;;13.90;99.90;;;;;;5071970;28;20035;-84
2023/01/01 04:49:35;;;;;;;8.00;1.98;;;13.90;99.90;;;;;;5039431;28;20126;-84
2023/01/01 04:52:02;;;;;;;7.05;2.05;;;14.00;99.90;;;;;;5039242;28;20039;-84
2023/01/01 04:54:27;;;;;;;5.35;1.70;;;14.00;99.90;;;;;;5054502;28;20068;-84
2023/01/01 04:56:53;;;;;;;5.45;2.40;;;14.00;99.90;;;;;;5038520;28;20074;-84
2023/01/01 04:59:19;;;;;;;5.15;2.00;;;13.90;99.90;;;;;;5021983;28;20058;-84
2023/01/01 05:01:45;;;;;;;5.75;2.13;;;13.90;99.90;;;;;;5040037;28;20048;-84
2023/01/01 05:04:15;;;;;;;7.03;1.95;;;13.90;99.90;;;;;;5037532;28;20492;-83
2023/01/01 05:06:41;;;;;;;7.55;2.03;;;13.90;99.90;;;;;;5039788;28;20071;-84
2023/01/01 05:09:11;;;;;;;6.82;1.90;;;13.80;99.90;;;;;;5048245;28;20042;-84
2023/01/01 05:11:37;;;;;;;8.73;2.28;;;13.80;99.90;;;;;;5044861;28;20036;-84
2023/01/01 05:14:03;;;;;;;8.25;2.15;;;13.70;99.90;;;;;;5053945;28;20040;-84
2023/01/01 05:16:34;;;;;;;5.65;1.70;;;13.70;99.90;;;;;;5023634;28;20044;-84
2023/01/01 05:19:00;;;;;;;8.30;2.58;;;13.70;99.90;;;;;;5071559;28;20166;-84
2023/01/01 05:21:32;;;;;;;6.88;1.60;;;13.70;99.90;;;;;;5039052;28;20453;-84
2023/01/01 05:24:06;;;;;;;5.72;1.50;;;13.70;99.90;;;;;;5055503;28;20040;-84
2023/01/01 05:26:35;;;;;;;9.50;2.38;;;13.70;99.90;;;;;;5054362;28;20046;-84
2023/01/01 05:29:01;;;;;;;8.00;2.05;;;13.60;99.90;;;;;;5043741;28;20574;-84
2023/01/01 05:31:30;;;;;;;8.63;1.95;;;13.50;99.90;;;;;;5054923;28;20556;-84
2023/01/01 05:33:57;;;;;;;4.45;1.58;;;13.50;99.90;;;;;;5055336;28;20112;-84
2023/01/01 05:36:37;;;;;;;9.57;1.58;;;13.40;99.90;;;;;;5071366;28;20134;-84
2023/01/01 05:39:11;;;;;;;6.00;1.90;;;13.40;99.90;;;;;;5055276;28;20164;-85
2023/01/01 05:41:37;;;;;;;7.63;1.60;;;13.30;99.90;;;;;;5055683;28;20024;-84
2023/01/01 05:44:05;;;;;;;4.68;1.45;;;13.30;99.90;;;;;;5054938;28;20779;-84
2023/01/01 05:46:31;;;;;;;5.10;1.50;;;13.30;99.90;;;;;;5070937;28;20036;-84
2023/01/01 05:48:56;;;;;;;5.80;1.70;;;13.20;99.90;;;;;;5041114;28;20032;-84
2023/01/01 05:51:27;;;;;;;7.00;1.90;;;13.20;99.90;;;;;;5058609;28;20375;-84
2023/01/01 05:53:54;;;;;;;8.65;1.85;;;13.20;99.90;;;;;;5072881;28;20040;-84
2023/01/01 05:56:20;;;;;;;6.95;1.60;;;13.10;99.90;;;;;;5071328;28;20040;-84
2023/01/01 05:58:46;;;;;;;7.68;1.63;;;13.10;99.90;;;;;;5056196;28;20040;-84
2023/01/01 06:01:21;;;;;;;5.00;1.52;;;13.00;99.90;;;;;;5071969;28;20121;-84
2023/01/01 06:03:47;;;;;;;6.03;1.30;;;13.00;99.90;;;;;;5055547;28;20044;-84
2023/01/01 06:06:20;;;;;;;3.50;1.50;;;13.00;99.90;;;;;;5055946;28;20058;-84
2023/01/01 06:09:04;;;;;;;9.00;1.70;;;13.00;99.90;;;;;;5089527;28;20043;-84
2023/01/01 06:11:31;;;;;;;6.60;2.55;;;13.00;99.90;;;;;;5036778;28;20043;-84
2023/01/01 06:13:58;;;;;;;6.63;1.88;;;13.00;99.90;;;;;;5038215;28;20043;-85
2023/01/01 06:16:26;;;;;;;7.30;1.60;;;13.00;99.90;;;;;;5055050;28;20040;-84
2023/01/01 06:18:52;;;;;;;7.07;1.70;;;13.00;99.90;;;;;;5072021;28;20063;-84
2023/01/01 06:21:20;;;;;;;5.90;2.10;;;12.90;99.90;;;;;;5022603;28;20484;-84
2023/01/01 06:23:46;;;;;;;6.45;1.85;;;12.90;99.90;;;;;;5071122;28;20040;-84
2023/01/01 06:26:24;;;;;;;7.13;1.70;;;12.80;99.90;;;;;;5055774;28;20127;-84
2023/01/01 06:28:51;;;;;;;6.80;1.80;;;12.80;99.90;;;;;;5054889;28;20040;-84
2023/01/01 06:31:19;;;;;;;9.48;2.10;;;12.80;99.90;;;;;;5031853;28;20138;-84
2023/01/01 06:33:46;;;;;;;6.45;1.48;;;12.80;99.90;;;;;;5071424;28;20044;-84
2023/01/01 06:36:14;;;;;;;12.35;2.40;;;12.80;99.90;;;;;;5054996;28;21351;-84
2023/01/01 06:38:42;;;;;;;5.97;1.88;;;12.80;99.90;;;;;;5036106;28;20045;-84
2023/01/01 06:41:11;;;;;;;10.90;2.05;;;12.70;99.90;;;;;;5054969;28;20051;-84
2023/01/01 06:43:37;;;;;;;9.57;2.25;;;12.70;99.90;;;;;;5038569;28;20028;-84
2023/01/01 06:46:13;;;;;;;7.13;2.00;;;12.70;99.90;;;;;;5064051;28;20044;-84
2023/01/01 06:48:39;;;;;;;7.32;2.00;;;12.70;99.90;;;;;;5040559;28;20492;-84
2023/01/01 06:51:08;;;;;;;6.68;2.10;;;12.70;99.90;;;;;;5040162;28;20041;-84
2023/01/01 06:53:34;;;;;;;8.20;2.67;;;12.70;99.90;;;;;;5053008;28;20036;-84
2023/01/01 06:56:00;;;;;;;13.13;2.55;;;12.70;99.90;;;;;;5037841;28;20040;-84
2023/01/01 06:58:25;;;;;;;9.70;1.80;;;12.60;99.90;;;;;;5038319;28;20064;-84
2023/01/01 07:00:51;;;;;;;13.25;1.92;;;12.60;99.90;;;;;;5038224;28;20197;-84
2023/01/01 07:03:17;;;;;;;12.38;2.28;;;12.60;99.90;;;;;;5038273;28;20123;-84
2023/01/01 07:05:42;;;;;;;7.75;1.75;;;12.60;99.90;;;;;;5028245;28;20080;-84
2023/01/01 07:08:08;;;;;;;13.23;2.85;;;12.50;99.90;;;;;;5036109;28;20041;-84
2023/01/01 07:10:34;;;;;;;9.27;1.83;;;12.50;99.90;;;;;;5037810;28;20067;-84
2023/01/01 07:12:59;;;;;;;9.15;2.00;;;12.50;99.90;;;;;;5004842;28;20043;-84
2023/01/01 07:15:26;;;;;;;5.88;1.80;;;12.50;99.90;;;;;;5004641;28;20028;-85
2023/01/01 07:17:52;;;;;;;9.25;1.92;;;12.50;99.90;;;;;;5022466;28;20380;-83
2023/01/01 07:20:17;;;;;;;9.90;2.03;;;12.50;99.90;;;;;;5021367;28;20127;-84
2023/01/01 07:22:43;;;;;;;6.93;2.28;;;12.50;99.90;;;;;;5036928;28;20044;-84
2023/01/01 07:25:13;;;;;;;7.20;1.70;;;12.50;99.90;;;;;;5054010;28;20087;-84
2023/01/01 07:27:39;;;;;;;10.40;1.90;;;12.50;99.90;;;;;;5036984;28;20566;-84
2023/01/01 07:30:08;;;;;;;6.55;1.70;;;12.50;99.90;;;;;;5021399;28;20044;-84
2023/01/01 07:32:34;;;;;;;7.22;1.60;;;12.40;99.90;;;;;;5037907;28;20107;-84
2023/01/01 07:35:00;;;;;;;10.15;2.20;;;12.40;99.90;;;;;;5020977;28;20036;-84
2023/01/01 07:37:25;;;;;;;8.98;1.80;;;12.40;99.90;;;;;;5039898;28;20048;-84
2023/01/01 07:39:52;;;;;;;8.15;1.92;;;12.40;99.90;;;;;;5036644;28;20060;-85
2023/01/01 07:42:17;;;;;;;11.57;1.90;;;12.40;99.90;;;;;;5052333;28;20562;-85
2023/01/01 07:44:43;;;;;;;8.95;1.73;;;12.30;99.90;;;;;;5036690;28;20051;-84
2023/01/01 07:47:25;;;;;;;9.80;1.80;;;12.30;99.90;;;;;;5053931;28;20129;-85
2023/01/01 07:49:52;;;;;;;6.88;1.80;;;12.30;99.90;;;;;;5052765;28;20048;-85
2023/01/01 07:52:18;;;;;;;8.30;2.05;;;12.20;99.90;;;;;;5052976;28;20071;-83
2023/01/01 07:54:44;;;;;;;9.20;2.00;;;12.30;99.90;;;;;;5070207;28;20084;-84
2023/01/01 07:57:09;;;;;;;7.40;1.83;;;12.20;99.90;;;;;;5053311;28;20084;-84
2023/01/01 07:59:35;;;;;;;8.13;1.67;;;12.20;99.90;;;;;;5069385;28;20678;-84
2023/01/01 08:02:01;;;;;;;8.73;1.88;;;12.20;99.90;;;;;;5069962;28;20089;-85
2023/01/01 08:04:27;;;;;;;7.63;1.70;;;12.20;99.90;;;;;;5069618;28;20492;-85
2023/01/01 08:06:53;;;;;;;6.05;1.92;;;12.10;99.90;;;;;;5053893;28;20129;-84
2023/01/01 08:09:19;;;;;;;7.63;1.83;;;12.20;99.90;;;;;;5052765;28;20194;-85
2023/01/01 08:11:45;;;;;;;8.35;1.60;;;12.10;99.90;;;;;;5054358;28;20036;-85
2023/01/01 08:14:11;;;;;;;7.93;2.45;;;12.10;99.90;;;;;;5036462;28;20040;-85
2023/01/01 08:16:37;;;;;;;12.57;2.13;;;12.10;99.90;;;;;;5037757;28;20048;-84
2023/01/01 08:19:03;;;;;;;9.07;2.40;;;12.10;99.90;;;;;;5034933;28;20078;-84
2023/01/01 08:21:29;;;;;;;6.05;1.60;;;12.00;99.90;;;;;;5052820;28;20036;-84
2023/01/01 08:23:54;;;;;;;9.77;1.70;;;12.00;99.90;;;;;;5037677;28;20413;-84
2023/01/01 08:26:29;;;;;;;15.10;2.22;;;12.00;99.90;;;;;;5055549;28;20047;-86
2023/01/01 08:28:55;;;;;;;7.60;1.45;;;12.00;99.90;;;;;;5052026;28;20040;-84
2023/01/01 08:31:21;;;;;;;10.75;1.75;;;12.00;99.90;;;;;;5050603;28;20086;-84
2023/01/01 08:33:47;;;;;;;11.73;1.80;;;12.00;99.90;;;;;;5020705;28;20040;-84
2023/01/01 08:36:13;;;;;;;8.60;1.75;;;12.00;99.90;;;;;;5037707;28;20040;-84
2023/01/01 08:38:39;;;;;;;7.35;1.60;;;11.90;99.90;;;;;;5050757;28;20044;-84
2023/01/01 08:41:05;;;;;;;8.27;2.05;;;11.90;99.90;;;;;;5040659;28;20051;-84
2023/01/01 08:43:30;;;;;;;8.43;2.53;;;11.90;99.90;;;;;;5022015;28;20040;-87
2023/01/01 08:45:56;;;;;;;6.05;1.80;;;12.00;99.90;;;;;;5055082;28;20415;-84
2023/01/01 08:48:22;;;;;;;8.38;2.13;;;11.90;99.90;;;;;;5039968;28;20526;-84
2023/01/01 08:50:59;;;;;;;9.00;1.90;;;11.90;99.90;;;;;;5039313;28;20040;-84
2023/01/01 08:53:28;;;;;;;9.93;2.00;;;11.90;99.90;;;;;;5037053;28;20044;-83
2023/01/01 08:56:06;;;;;;;7.53;1.50;;;11.90;99.90;;;;;;5057057;28;20043;-85
2023/01/01 08:58:34;;;;;;;17.15;2.45;;;11.90;99.90;;;;;;5058030;28;20040;-86
2023/01/01 09:00:59;;;;;;;9.27;1.95;;;11.90;99.90;;;;;;5074441;28;20498;-85
2023/01/01 09:03:25;;;;;;;11.80;1.90;;;11.90;99.90;;;;;;5058202;28;20040;-85
2023/01/01 09:05:52;;;;;;;14.70;2.63;;;11.90;99.90;;;;;;5057293;28;20044;-85
2023/01/01 09:08:18;;;;;;;7.10;2.20;;;11.90;99.90;;;;;;5057606;28;20044;-85
2023/01/01 09:10:44;;;;;;;7.68;2.38;;;11.90;99.90;;;;;;5041028;28;20043;-86
2023/01/01 09:13:15;;;;;;;12.20;2.03;;;11.90;99.90;;;;;;5041065;28;20032;-86
2023/01/01 09:15:44;;;;;;;10.25;2.78;;;11.90;99.90;;;;;;5062797;28;20118;-84
2023/01/01 09:18:10;;;;;;;12.35;2.53;;;11.80;99.90;;;;;;5055464;28;20499;-84
2023/01/01 09:20:37;;;;;;;12.27;2.35;;;11.90;99.90;;;;;;5053330;28;20487;-86
2023/01/01 09:23:03;;;;;;;11.35;2.08;;;11.80;99.90;;;;;;5058594;28;20044;-85
2023/01/01 09:25:29;;;;;;;13.75;2.45;;;11.80;99.90;;;;;;5054392;28;20048;-86
2023/01/01 09:27:59;;;;;;;14.27;2.40;;;11.80;99.90;;;;;;5054808;28;20058;-86
2023/01/01 09:30:25;;;;;;;6.63;1.80;;;11.90;99.90;;;;;;5052703;28;20043;-84
2023/01/01 09:32:50;;;;;;;10.57;2.05;;;11.90;99.90;;;;;;5037669;28;20069;-86
2023/01/01 09:35:16;;;;;;;10.13;1.70;;;11.90;99.90;;;;;;5054974;28;20035;-84
2023/01/01 09:37:42;;;;;;;6.93;1.55;;;11.90;99.90;;;;;;5052147;28;20040;-84
2023/01/01 09:40:35;;;;;;;9.70;2.45;;;11.90;99.90;;;;;;5036321;28;20049;-85
2023/01/01 09:43:04;;;;;;;12.50;2.20;;;12.00;99.90;;;;;;5051502;28;20514;-85
2023/01/01 09:45:55;;;;;;;7.53;1.95;;;12.10;99.90;;;;;;5049932;28;20048;-85
2023/01/01 09:48:23;;;;;;;11.32;1.90;;;12.10;99.90;;;;;;5057721;28;20481;-87
2023/01/01 09:50:49;;;;;;;10.60;2.05;;;12.20;99.90;;;;;;5034275;28;20045;-86
2023/01/01 09:53:42;;;;;;;8.57;1.70;;;12.40;99.90;;;;;;5050353;28;20043;-86
2023/01/01 09:56:17;;;;;;;7.20;1.73;;;12.50;99.90;;;;;;5049472;28;20048;-86
2023/01/01 09:58:43;;;;;;;8.93;1.65;;;12.60;99.90;;;;;;5051318;28;20090;-86
2023/01/01 10:01:31;;;;;;;7.05;1.98;;;12.60;99.90;;;;;;5017567;28;20082;-85
2023/01/01 10:04:15;;;;;;;11.90;1.80;;;12.60;99.90;;;;;;5067439;28;20113;-85
2023/01/01 10:07:11;;;;;;;10.88;2.20;;;12.50;99.90;;;;;;5051201;28;20400;-86
2023/01/01 10:10:05;;;;;;;9.53;1.80;;;12.40;99.90;;;;;;5065311;28;20480;-84
2023/01/01 10:13:00;;;;;;;7.82;1.58;;;12.30;99.90;;;;;;5051247;28;20044;-84
2023/01/01 10:15:33;;;;;;;10.70;1.77;;;12.30;99.90;;;;;;5053775;28;20044;-85
2023/01/01 10:18:05;;;;;;;11.30;2.35;;;12.20;99.90;;;;;;5055571;28;20441;-85
2023/01/01 10:20:37;;;;;;;9.75;1.75;;;12.20;99.90;;;;;;5055480;28;20044;-87
2023/01/01 10:23:10;;;;;;;9.80;2.20;;;12.30;99.90;;;;;;5053675;28;20040;-86
2023/01/01 10:25:38;;;;;;;13.40;2.20;;;12.50;99.90;;;;;;5071357;28;20040;-86
2023/01/01 10:28:12;;;;;;;7.68;1.95;;;12.80;99.90;;;;;;5056036;28;20032;-88
2023/01/01 10:30:41;;;;;;;8.43;1.85;;;13.20;99.90;;;;;;5055097;28;20521;-89
2023/01/01 10:33:12;;;;;;;9.30;2.30;;;13.40;99.90;;;;;;5039309;28;20040;-87
2023/01/01 10:35:41;;;;;;;12.90;2.22;;;13.40;99.90;;;;;;5040629;28;20072;-87
2023/01/01 10:38:10;;;;;;;12.30;2.05;;;13.50;99.90;;;;;;5059294;28;20399;-87
2023/01/01 10:40:36;;;;;;;8.98;2.10;;;13.50;99.90;;;;;;5058350;28;20043;-88
2023/01/01 10:43:03;;;;;;;7.95;1.70;;;13.40;99.90;;;;;;5041977;28;20093;-88
2023/01/01 10:45:34;;;;;;;10.95;2.17;;;13.40;99.90;;;;;;5058732;28;20032;-88
2023/01/01 10:48:20;;;;;;;12.85;1.98;;;13.30;99.90;;;;;;5076989;28;20123;-90
2023/01/01 10:50:53;;;;;;;;;;;13.20;99.90;;;;;;5077242;28;20131;-90
2023/01/01 10:53:42;;;;;;;12.55;2.88;;;13.10;99.90;;;;;;5060218;28;19963;-89
2023/01/01 10:56:11;;;;;;;10.82;1.90;;;13.10;99.90;;;;;;5060412;28;20097;-88
2023/01/01 10:58:37;;;;;;;14.43;2.40;;;13.00;99.90;;;;;;5077025;28;20043;-88
2023/01/01 11:01:05;;;;;;;11.40;1.60;;;13.00;99.90;;;;;;5061633;28;20047;-88
2023/01/01 11:03:31;;;;;;;12.40;2.30;;;13.00;99.90;;;;;;5043461;28;20088;-89
2023/01/01 11:06:21;;;;;;;9.77;1.73;;;13.00;99.90;;;;;;5043269;28;20051;-89
2023/01/01 11:08:55;;;;;;;8.52;2.30;;;13.00;99.90;;;;;;5059115;28;20413;-89
2023/01/01 11:11:38;;;;;;;14.15;1.90;;;13.20;99.90;;;;;;5059441;28;20397;-89
2023/01/01 11:14:05;;;;;;;10.65;2.10;;;13.60;99.90;;;;;;5058414;28;20044;-87
2023/01/01 11:16:31;;;;;;;10.95;2.33;;;13.90;99.90;;;;;;5074177;28;20042;-87
2023/01/01 11:19:06;;;;;;;10.63;2.15;;;13.90;99.90;;;;;;5058311;28;20028;-88
2023/01/01 11:21:33;;;;;;;11.07;2.00;;;13.90;99.90;;;;;;5058462;28;20039;-90
2023/01/01 11:24:14;;;;;;;11.05;2.30;;;13.90;99.90;;;;;;5058824;28;20036;-88
2023/01/01 11:26:40;;;;;;;10.98;2.70;;;13.90;99.90;;;;;;5058576;28;20036;-86
2023/01/01 11:29:14;;;;;;;12.20;2.08;;;13.90;99.90;;;;;;5057267;28;20047;-89
2023/01/01 11:31:41;;;;;;;13.32;2.83;;;13.70;99.90;;;;;;5059372;28;20518;-90
2023/01/01 11:34:28;;;;;;;13.85;2.05;;;13.50;99.90;;;;;;5050227;28;20033;-89
2023/01/01 11:37:13;;;;;;;11.73;2.10;;;13.40;99.90;;;;;;5058692;28;20036;-90
2023/01/01 11:39:43;;;;;;;11.25;2.35;;;13.30;99.90;;;;;;5056983;28;20052;-89
2023/01/01 11:42:25;;;;;;;13.02;2.55;;;13.20;99.90;;;;;;5048426;28;20557;-87
2023/01/01 11:44:58;;;;;;;8.88;2.08;;;13.30;99.90;;;;;;5057152;28;20112;-88
2023/01/01 11:47:29;;;;;;;9.60;2.28;;;13.40;99.90;;;;;;5073210;28;20051;-87
2023/01/01 11:50:13;;;;;;;11.43;2.20;;;13.40;99.90;;;;;;5066526;28;20039;-86
2023/01/01 11:52:48;;;;;;;12.00;2.25;;;12.40;99.90;;;;;;5047158;28;20042;-86
2023/01/01 11:55:17;;;;;;;11.53;2.20;;;13.40;99.90;;;;;;5056420;28;20495;-86
2023/01/01 11:58:05;;;;;;;10.27;2.40;;;13.60;99.90;;;;;;5056969;28;20134;-87
2023/01/01 12:00:34;;;;;;;10.73;2.35;;;13.70;99.90;;;;;;5050542;28;20043;-87
2023/01/01 12:03:09;;;;;;;12.98;2.22;;;13.70;99.90;;;;;;5055771;28;20040;-88
2023/01/01 12:05:58;;;;;;;8.95;2.03;;;13.50;99.90;;;;;;5072103;28;20054;-87
2023/01/01 12:08:49;;;;;;;11.93;2.53;;;13.30;99.90;;;;;;5052051;28;20113;-89
2023/01/01 12:11:28;;;;;;;11.10;2.20;;;13.20;99.90;;;;;;5049632;28;20028;-89
2023/01/01 12:14:03;;;;;;;9.93;2.60;;;13.10;99.90;;;;;;5055671;28;20050;-89
2023/01/01 12:16:59;;;;;;;7.28;2.05;;;13.00;99.90;;;;;;5056166;28;20036;-88
2023/01/01 12:20:09;;;;;;;7.50;1.45;;;13.00;99.90;;;;;;5053946;28;20531;-89
2023/01/01 12:22:35;;;;;;;8.82;2.63;;;12.90;99.90;;;;;;5030832;28;20047;-89
2023/01/01 12:25:02;;;;;;;11.05;2.15;;;12.90;99.90;;;;;;5023124;28;20039;-89
2023/01/01 12:27:57;;;;;;;10.50;1.90;;;12.90;99.90;;;;;;5058016;28;20040;-89
2023/01/01 12:30:36;;;;;;;10.40;1.95;;;12.80;99.90;;;;;;5055628;28;20040;-89
2023/01/01 12:33:11;;;;;;;7.28;1.95;;;12.80;99.90;;;;;;5057092;28;20036;-89
2023/01/01 12:35:52;;;;;;;11.85;2.72;;;12.80;99.90;;;;;;5044304;28;20495;-89
2023/01/01 12:38:39;;;;;;;11.65;2.47;;;12.80;99.90;;;;;;5072230;28;20052;-88
2023/01/01 12:41:17;;;;;;;12.90;2.60;;;12.80;99.90;;;;;;5070298;28;20032;-89
2023/01/01 12:43:58;;;;;;;10.57;2.38;;;12.70;99.90;;;;;;5045992;28;20032;-89
2023/01/01 12:46:35;;;;;;;8.27;2.05;;;12.70;99.90;;;;;;5071849;28;20052;-89
2023/01/01 12:49:25;;;;;;;17.30;2.80;;;12.70;99.90;;;;;;5045629;28;20436;-88
2023/01/01 12:52:06;;;;;;;11.45;2.45;;;12.70;99.90;;;;;;5071844;28;20071;-88
2023/01/01 12:54:52;;;;;;;11.27;2.08;;;12.70;99.90;;;;;;5048546;28;20101;-86
2023/01/01 12:57:29;;;;;;;11.00;2.17;;;12.60;99.90;;;;;;5044400;28;20048;-89
2023/01/01 12:59:56;;;;;;;11.63;2.13;;;12.50;99.90;;;;;;5047407;28;20093;-89
2023/01/01 13:02:25;;;;;;;13.35;2.40;;;12.50;99.90;;;;;;5072445;28;20044;-88
2023/01/01 13:04:59;;;;;;;9.75;2.50;;;12.50;99.90;;;;;;5056223;28;20043;-89